UPS1096 KSDF-KEWR
Flight info
| Callsign | UPS1096 |
|---|---|
| Flight time | N/A |
| Altitude | 35000 |
| Route | EEVAA1 SHIPR SITTR Q34 GVE PHLBO4 |
| Aircraft | MD11/H-SDE1E2E3FGHIJ2J3J4J5M1RWXY/LB1D1 |
Departure
| Time | 2026-05-08 02:49 |
|---|---|
| Airport | Louisville Muhammad Ali International Airport (KSDF) |
Arrival
| Time | N/A |
|---|---|
| Airport | Newark Liberty International Airport (KEWR) |
| Time | Latitude | Longitude | Altitude | Speed | Heading |
|---|---|---|---|---|---|
| 2026-05-08 02:31 | 38.17316 | -85.73043 | 511 ft | 0 kts | 178° |
| 2026-05-08 02:40 | 38.17327 | -85.73043 | 511 ft | 2 kts | 178° |
| 2026-05-08 02:40 | 38.17341 | -85.73043 | 511 ft | 2 kts | 178° |
| 2026-05-08 02:40 | 38.17352 | -85.73044 | 511 ft | 0 kts | 178° |
| 2026-05-08 02:41 | 38.17366 | -85.73045 | 511 ft | 2 kts | 163° |
| 2026-05-08 02:41 | 38.17379 | -85.73053 | 511 ft | 2 kts | 145° |
| 2026-05-08 02:41 | 38.17391 | -85.73066 | 511 ft | 2 kts | 129° |
| 2026-05-08 02:41 | 38.17398 | -85.73080 | 511 ft | 0 kts | 114° |
| 2026-05-08 02:42 | 38.17400 | -85.73085 | 511 ft | 0 kts | 112° |
| 2026-05-08 02:43 | 38.17392 | -85.73061 | 511 ft | 5 kts | 111° |
| 2026-05-08 02:44 | 38.17376 | -85.73005 | 511 ft | 7 kts | 109° |
| 2026-05-08 02:44 | 38.17352 | -85.72918 | 511 ft | 14 kts | 110° |
| 2026-05-08 02:44 | 38.17263 | -85.72796 | 511 ft | 25 kts | 164° |
| 2026-05-08 02:44 | 38.17117 | -85.72746 | 511 ft | 5 kts | 163° |
| 2026-05-08 02:45 | 38.17095 | -85.72737 | 511 ft | 8 kts | 162° |
| 2026-05-08 02:45 | 38.17009 | -85.72707 | 511 ft | 19 kts | 165° |
| 2026-05-08 02:45 | 38.16839 | -85.72653 | 511 ft | 17 kts | 166° |
| 2026-05-08 02:45 | 38.16716 | -85.72611 | 511 ft | 18 kts | 164° |
| 2026-05-08 02:46 | 38.16590 | -85.72568 | 511 ft | 16 kts | 165° |
| 2026-05-08 02:46 | 38.16514 | -85.72541 | 511 ft | 4 kts | 165° |
| 2026-05-08 02:46 | 38.16474 | -85.72524 | 511 ft | 8 kts | 152° |
| 2026-05-08 02:46 | 38.16454 | -85.72500 | 511 ft | 0 kts | 112° |
| 2026-05-08 02:47 | 38.16450 | -85.72484 | 511 ft | 5 kts | 104° |
| 2026-05-08 02:47 | 38.16459 | -85.72409 | 511 ft | 13 kts | 66° |
| 2026-05-08 02:47 | 38.16507 | -85.72378 | 511 ft | 5 kts | 349° |
| 2026-05-08 02:47 | 38.16513 | -85.72379 | 511 ft | 0 kts | 349° |
| 2026-05-08 02:48 | 38.16535 | -85.72385 | 511 ft | 18 kts | 346° |
| 2026-05-08 02:49 | 38.16944 | -85.72524 | 512 ft | 101 kts | 344° |
| 2026-05-08 02:49 | 38.17864 | -85.72843 | 513 ft | 168 kts | 344° |
| 2026-05-08 02:49 | 38.19040 | -85.73252 | 986 ft | 178 kts | 343° |
| 2026-05-08 02:49 | 38.20231 | -85.73669 | 1626 ft | 182 kts | 345° |
| 2026-05-08 02:50 | 38.21443 | -85.74079 | 2341 ft | 184 kts | 341° |
| 2026-05-08 02:50 | 38.22793 | -85.74587 | 2236 ft | 208 kts | 342° |
| 2026-05-08 02:50 | 38.24196 | -85.75017 | 2812 ft | 217 kts | 353° |
| 2026-05-08 02:50 | 38.25769 | -85.74693 | 3021 ft | 245 kts | 25° |
| 2026-05-08 02:51 | 38.27193 | -85.73426 | 3642 ft | 259 kts | 44° |
| 2026-05-08 02:51 | 38.28301 | -85.71589 | 4329 ft | 270 kts | 58° |
| 2026-05-08 02:51 | 38.29071 | -85.69387 | 5202 ft | 278 kts | 72° |
| 2026-05-08 02:51 | 38.29336 | -85.66937 | 6093 ft | 287 kts | 90° |
| 2026-05-08 02:52 | 38.28953 | -85.64445 | 7019 ft | 293 kts | 111° |
| 2026-05-08 02:52 | 38.27917 | -85.62218 | 7906 ft | 299 kts | 131° |
| 2026-05-08 02:52 | 38.26367 | -85.60467 | 8770 ft | 303 kts | 144° |
| 2026-05-08 02:52 | 38.24655 | -85.58899 | 9670 ft | 307 kts | 144° |
| 2026-05-08 02:53 | 38.22930 | -85.57262 | 10402 ft | 319 kts | 142° |
| 2026-05-08 02:53 | 38.21110 | -85.55439 | 10643 ft | 348 kts | 141° |
| 2026-05-08 02:53 | 38.19147 | -85.53418 | 10810 ft | 379 kts | 141° |
| 2026-05-08 02:53 | 38.17028 | -85.51216 | 10926 ft | 409 kts | 141° |
| 2026-05-08 02:54 | 38.14775 | -85.48869 | 11315 ft | 428 kts | 141° |
| 2026-05-08 02:54 | 38.12451 | -85.46445 | 12022 ft | 439 kts | 141° |
| 2026-05-08 02:54 | 38.10076 | -85.43967 | 12795 ft | 448 kts | 142° |
| 2026-05-08 02:54 | 38.07649 | -85.41435 | 13480 ft | 457 kts | 143° |
| 2026-05-08 02:55 | 38.05177 | -85.38861 | 14298 ft | 464 kts | 143° |
| 2026-05-08 02:55 | 38.00110 | -85.33596 | 15834 ft | 477 kts | 144° |
| 2026-05-08 02:55 | 37.97663 | -85.30706 | 16439 ft | 490 kts | 134° |
| 2026-05-08 02:56 | 37.95707 | -85.27150 | 17120 ft | 500 kts | 120° |
| 2026-05-08 02:56 | 37.94386 | -85.23072 | 17771 ft | 507 kts | 107° |
| 2026-05-08 02:56 | 37.93636 | -85.18696 | 18416 ft | 513 kts | 99° |
| 2026-05-08 02:56 | 37.93027 | -85.14241 | 19020 ft | 519 kts | 100° |
| 2026-05-08 02:57 | 37.92363 | -85.09740 | 19593 ft | 525 kts | 101° |
| 2026-05-08 02:57 | 37.91847 | -85.05151 | 20086 ft | 532 kts | 93° |
| 2026-05-08 02:57 | 37.91871 | -85.00463 | 20627 ft | 536 kts | 83° |
| 2026-05-08 02:57 | 37.92288 | -84.95760 | 21135 ft | 541 kts | 80° |
| 2026-05-08 02:58 | 37.92767 | -84.91025 | 21684 ft | 547 kts | 80° |
| 2026-05-08 02:58 | 37.93229 | -84.86234 | 22210 ft | 553 kts | 81° |
| 2026-05-08 02:58 | 37.93667 | -84.81378 | 22713 ft | 559 kts | 81° |
| 2026-05-08 02:58 | 37.94104 | -84.76463 | 23201 ft | 566 kts | 81° |
| 2026-05-08 02:59 | 37.94537 | -84.71512 | 23705 ft | 571 kts | 81° |
| 2026-05-08 02:59 | 37.94972 | -84.66493 | 24208 ft | 577 kts | 81° |
| 2026-05-08 02:59 | 37.95407 | -84.61443 | 24723 ft | 581 kts | 81° |
| 2026-05-08 02:59 | 37.95858 | -84.56324 | 25191 ft | 586 kts | 81° |
| 2026-05-08 03:00 | 37.96220 | -84.51171 | 25649 ft | 592 kts | 84° |
| 2026-05-08 03:00 | 37.96408 | -84.45952 | 26144 ft | 597 kts | 87° |
| 2026-05-08 03:00 | 37.96372 | -84.40687 | 26625 ft | 602 kts | 91° |
| 2026-05-08 03:00 | 37.96157 | -84.35371 | 27212 ft | 604 kts | 92° |
| 2026-05-08 03:01 | 37.95880 | -84.30036 | 27847 ft | 604 kts | 94° |
| 2026-05-08 03:01 | 37.95599 | -84.24748 | 28494 ft | 604 kts | 93° |
| 2026-05-08 03:01 | 37.95324 | -84.19463 | 29091 ft | 604 kts | 93° |
| 2026-05-08 03:01 | 37.95054 | -84.14172 | 29617 ft | 606 kts | 93° |
| 2026-05-08 03:02 | 37.94793 | -84.08868 | 30174 ft | 606 kts | 92° |
| 2026-05-08 03:02 | 37.94534 | -84.03559 | 30605 ft | 608 kts | 93° |
| 2026-05-08 03:02 | 37.94275 | -83.98223 | 31052 ft | 609 kts | 93° |
| 2026-05-08 03:02 | 37.94018 | -83.92870 | 31406 ft | 613 kts | 94° |
| 2026-05-08 03:03 | 37.93759 | -83.87499 | 31754 ft | 615 kts | 93° |
| 2026-05-08 03:03 | 37.93504 | -83.82095 | 32103 ft | 618 kts | 94° |
| 2026-05-08 03:03 | 37.93246 | -83.76677 | 32425 ft | 620 kts | 93° |
| 2026-05-08 03:03 | 37.92985 | -83.71219 | 32720 ft | 623 kts | 94° |
| 2026-05-08 03:04 | 37.92737 | -83.65749 | 33056 ft | 625 kts | 93° |
| 2026-05-08 03:04 | 37.92489 | -83.60278 | 33393 ft | 626 kts | 94° |
| 2026-05-08 03:04 | 37.92246 | -83.54767 | 33701 ft | 629 kts | 94° |
| 2026-05-08 03:04 | 37.91998 | -83.49261 | 34119 ft | 628 kts | 94° |
| 2026-05-08 03:05 | 37.91751 | -83.43759 | 34562 ft | 627 kts | 93° |
| 2026-05-08 03:05 | 37.91508 | -83.38245 | 34952 ft | 627 kts | 93° |
| 2026-05-08 03:05 | 37.91265 | -83.32715 | 35110 ft | 628 kts | 94° |
| 2026-05-08 03:06 | 37.90656 | -83.21760 | 35087 ft | 624 kts | 95° |
| 2026-05-08 03:06 | 37.89970 | -83.10835 | 35086 ft | 625 kts | 95° |